Time;durP1;ratioP1;P1;durP2;ratioP2;P2;SDS_P1;SDS_P2;PMS_P1;PMS_P2;Temp;Humidity;BMP_temperature;BMP_pressure;BME280_temperature;BME280_humidity;BME280_pressure;Samples;Min_cycle;Max_cycle;Signal;HPM_P1;HPM_P2
2022/03/28 00:01:35;;;;;;;14.18;6.35;;;;;;;5.84;37.97;100034.87;1731321;82;20968;-40
2022/03/28 00:04:01;;;;;;;16.50;6.92;;;;;;;5.84;37.50;100030.95;1731342;83;20995;-40
2022/03/28 00:06:27;;;;;;;16.00;6.50;;;;;;;5.85;37.60;100027.43;1731379;82;20983;-39
2022/03/28 00:08:53;;;;;;;20.57;7.15;;;;;;;5.83;37.60;100027.06;1731337;83;20963;-41
2022/03/28 00:11:19;;;;;;;14.07;6.78;;;;;;;5.80;37.97;100032.35;1731275;82;20948;-40
2022/03/28 00:13:46;;;;;;;15.25;6.15;;;;;;;5.80;37.87;100021.45;1731320;82;20994;-41
2022/03/28 00:16:12;;;;;;;20.68;6.53;;;;;;;5.80;37.80;100023.22;1731388;83;21530;-40
2022/03/28 00:18:39;;;;;;;14.55;6.28;;;;;;;5.79;37.80;100017.61;1731279;83;20995;-41
2022/03/28 00:21:05;;;;;;;14.58;6.30;;;;;;;5.77;37.80;100014.57;1731337;82;20975;-40
2022/03/28 00:23:32;;;;;;;21.15;7.37;;;;;;;5.77;38.06;100015.88;1731282;82;20986;-41
2022/03/28 00:25:59;;;;;;;16.30;6.67;;;;;;;5.77;37.80;100011.11;1731275;81;21457;-40
2022/03/28 00:28:26;;;;;;;27.60;7.80;;;;;;;5.72;38.11;100009.91;1731494;82;20983;-41
2022/03/28 00:30:51;;;;;;;18.03;7.13;;;;;;;5.71;38.25;100006.91;1731586;82;20995;-41
2022/03/28 00:33:18;;;;;;;18.90;7.20;;;;;;;5.69;38.38;99992.16;1731351;81;20964;-40
2022/03/28 00:35:43;;;;;;;18.35;7.35;;;;;;;5.67;38.18;99993.48;1731336;81;21472;-41
2022/03/28 00:38:11;;;;;;;19.95;7.33;;;;;;;5.64;38.55;99988.37;1731316;82;20995;-40
2022/03/28 00:40:37;;;;;;;14.98;7.40;;;;;;;5.62;38.65;99992.77;1731449;82;21375;-40
2022/03/28 00:43:06;;;;;;;14.73;7.63;;;;;;;5.63;38.41;99981.42;1731494;83;20987;-40
2022/03/28 00:45:35;;;;;;;23.27;7.95;;;;;;;5.61;38.64;99976.69;1731326;83;20983;-40
2022/03/28 00:48:03;;;;;;;17.65;7.30;;;;;;;5.60;39.22;99977.56;1731220;82;21054;-42
2022/03/28 00:50:29;;;;;;;16.62;7.55;;;;;;;5.59;38.72;99973.27;1731449;82;20959;-40
2022/03/28 00:52:57;;;;;;;21.95;7.78;;;;;;;5.59;38.36;99965.44;1731435;81;21512;-40
2022/03/28 00:55:23;;;;;;;;;;;;;;;5.56;38.90;99958.98;1733861;82;21051;-41
2022/03/28 00:57:49;;;;;;;18.15;6.95;;;;;;;5.53;39.45;99956.01;1731249;83;20102;-41
2022/03/28 01:00:16;;;;;;;22.60;7.28;;;;;;;5.53;39.09;99944.69;1731457;83;21014;-41
2022/03/28 01:02:42;;;;;;;15.72;7.15;;;;;;;5.53;38.83;99939.47;1731557;82;21488;-40
2022/03/28 01:05:09;;;;;;;15.98;7.45;;;;;;;5.52;38.84;99932.11;1731361;83;21516;-39
2022/03/28 01:07:35;;;;;;;19.32;7.92;;;;;;;5.53;39.03;99934.26;1731411;82;21112;-42
2022/03/28 01:10:02;;;;;;;19.10;7.83;;;;;;;5.52;38.94;99925.58;1731447;82;21465;-41
2022/03/28 01:12:31;;;;;;;14.85;7.42;;;;;;;5.53;38.74;99922.52;1731382;82;21736;-41
2022/03/28 01:14:58;;;;;;;18.27;7.55;;;;;;;5.52;39.06;99913.00;1731254;82;20991;-41
2022/03/28 01:20:09;;;;;;;16.17;7.70;;;;;;;5.46;39.04;99907.94;1731257;83;20978;-41
2022/03/28 01:22:36;;;;;;;20.15;7.85;;;;;;;5.41;39.52;99904.58;1731318;82;20991;-41
2022/03/28 01:25:06;;;;;;;15.95;7.37;;;;;;;5.33;40.17;99909.53;1731379;82;20999;-40
2022/03/28 01:27:33;;;;;;;20.00;7.08;;;;;;;5.38;39.60;99905.06;1731321;82;21066;-40
2022/03/28 01:29:59;;;;;;;17.53;7.80;;;;;;;5.35;39.72;99897.31;1731524;83;21025;-40
2022/03/28 01:32:25;;;;;;;16.42;7.20;;;;;;;5.37;39.33;99892.91;1731239;83;20991;-40
2022/03/28 01:34:51;;;;;;;15.93;7.35;;;;;;;5.35;40.21;99886.87;1731253;82;21496;-40
2022/03/28 01:37:17;;;;;;;17.45;7.83;;;;;;;5.34;39.71;99883.00;1731320;83;21643;-40
2022/03/28 01:39:43;;;;;;;16.07;8.25;;;;;;;5.32;39.88;99883.03;1731315;82;20991;-41
2022/03/28 01:42:09;;;;;;;19.60;8.20;;;;;;;5.30;39.90;99881.37;1731174;83;20987;-40
2022/03/28 01:44:35;;;;;;;21.02;8.35;;;;;;;5.24;40.46;99879.77;1731454;83;21108;-40
2022/03/28 01:47:00;;;;;;;16.97;8.60;;;;;;;5.23;40.47;99875.44;1731180;82;20983;-40
2022/03/28 01:49:26;;;;;;;18.07;8.45;;;;;;;5.20;40.31;99872.89;1719279;82;21043;-39
2022/03/28 01:51:52;;;;;;;18.42;8.13;;;;;;;5.16;40.74;99876.02;1718340;82;21034;-40
2022/03/28 01:54:18;;;;;;;19.00;8.30;;;;;;;5.16;40.87;99869.49;1718350;82;20995;-41
2022/03/28 01:56:44;;;;;;;19.37;8.58;;;;;;;5.11;40.77;99868.77;1718351;82;20966;-41
2022/03/28 01:59:11;;;;;;;21.45;8.68;;;;;;;5.08;40.74;99870.59;1718469;82;21473;-39
2022/03/28 02:01:37;;;;;;;17.42;7.85;;;;;;;5.06;40.87;99865.84;1718440;83;20996;-39
2022/03/28 02:04:04;;;;;;;23.60;8.78;;;;;;;5.05;40.78;99852.41;1718437;82;20987;-39
2022/03/28 02:06:32;;;;;;;19.30;8.63;;;;;;;5.04;40.80;99858.50;1718578;82;21116;-41
2022/03/28 02:08:58;;;;;;;19.10;8.35;;;;;;;5.03;40.95;99852.44;1718355;82;21003;-40
2022/03/28 02:11:24;;;;;;;17.42;7.92;;;;;;;5.02;41.17;99852.47;1718361;82;20980;-40
2022/03/28 02:13:50;;;;;;;19.32;8.63;;;;;;;5.00;40.97;99846.87;1718305;83;21000;-41
2022/03/28 02:16:16;;;;;;;17.67;8.35;;;;;;;4.97;41.89;99843.02;1718313;82;21043;-41
2022/03/28 02:18:41;;;;;;;18.17;9.03;;;;;;;4.95;41.37;99843.51;1718319;83;20960;-40
2022/03/28 02:21:07;;;;;;;19.62;8.60;;;;;;;4.96;41.21;99846.96;1718366;82;20995;-40
2022/03/28 02:23:33;;;;;;;20.40;8.33;;;;;;;4.94;41.71;99843.54;1718350;82;20988;-40
2022/03/28 02:25:59;;;;;;;16.75;7.87;;;;;;;4.93;41.71;99835.30;1718331;83;21478;-39
2022/03/28 02:28:26;;;;;;;19.55;8.58;;;;;;;4.91;41.60;99844.91;1718453;82;20999;-41
2022/03/28 02:30:53;;;;;;;25.15;8.35;;;;;;;4.90;41.73;99841.45;1718284;83;20964;-40
2022/03/28 02:33:20;;;;;;;18.60;7.50;;;;;;;4.89;42.37;99834.51;1718370;82;21469;-40
2022/03/28 02:35:46;;;;;;;21.50;9.28;;;;;;;4.92;41.77;99840.11;1718403;82;20999;-41
2022/03/28 02:38:12;;;;;;;20.52;8.43;;;;;;;4.87;42.36;99833.69;1718363;82;20964;-40
2022/03/28 02:43:23;;;;;;;19.27;8.58;;;;;;;4.91;42.53;99832.75;1818422;79;23927;-40
2022/03/28 02:45:49;;;;;;;17.45;8.33;;;;;;;4.88;41.79;99828.91;1791539;80;21062;-40
2022/03/28 02:48:15;;;;;;;18.75;8.48;;;;;;;4.85;41.79;99828.97;1791600;80;21050;-39
2022/03/28 02:50:41;;;;;;;21.87;8.18;;;;;;;4.86;41.44;99826.78;1791953;80;20998;-39
2022/03/28 02:53:07;;;;;;;23.18;9.10;;;;;;;4.84;42.01;99822.06;1791867;80;21066;-40
2022/03/28 02:55:33;;;;;;;22.10;8.58;;;;;;;4.82;42.12;99822.55;1791856;80;21455;-40
2022/03/28 02:57:58;;;;;;;16.05;8.48;;;;;;;4.84;41.77;99824.66;1791963;80;21546;-39
2022/03/28 03:00:24;;;;;;;19.55;7.72;;;;;;;4.86;41.62;99815.05;1791805;80;21680;-39
2022/03/28 03:02:51;;;;;;;22.00;9.20;;;;;;;4.86;41.59;99813.75;1791716;80;21499;-39
2022/03/28 03:05:17;;;;;;;25.02;9.28;;;;;;;4.88;41.59;99810.66;1791864;80;21031;-38
2022/03/28 03:07:43;;;;;;;19.27;7.97;;;;;;;4.86;41.49;99812.45;1791786;80;21082;-39
2022/03/28 03:10:10;;;;;;;21.75;7.97;;;;;;;4.85;41.71;99808.12;1791719;80;21030;-39
2022/03/28 03:12:36;;;;;;;17.10;8.17;;;;;;;4.87;41.57;99812.84;1793304;80;21122;-39
2022/03/28 03:15:02;;;;;;;19.32;9.08;;;;;;;4.91;41.49;99810.59;1792920;80;21468;-38
2022/03/28 03:17:28;;;;;;;19.20;8.50;;;;;;;4.92;41.54;99806.23;1793145;80;21007;-40
2022/03/28 03:19:54;;;;;;;18.07;8.58;;;;;;;4.90;41.81;99805.42;1793022;80;21480;-39
2022/03/28 03:22:20;;;;;;;20.75;7.95;;;;;;;4.92;41.24;99807.08;1793102;80;21051;-39
2022/03/28 03:24:46;;;;;;;15.93;8.15;;;;;;;4.91;41.33;99807.11;1793000;80;20995;-40
2022/03/28 03:27:13;;;;;;;20.20;8.43;;;;;;;4.89;41.36;99797.17;1792952;80;20971;-39
2022/03/28 03:29:39;;;;;;;18.70;8.43;;;;;;;4.90;41.29;99794.54;1793136;80;21033;-39
2022/03/28 03:32:06;;;;;;;20.03;8.93;;;;;;;4.87;41.70;99801.11;1793157;80;20994;-41
2022/03/28 03:34:34;;;;;;;17.95;8.23;;;;;;;4.89;41.17;99788.91;1793066;80;20948;-39
2022/03/28 03:37:01;;;;;;;16.77;7.05;;;;;;;4.89;41.25;99790.20;1793060;80;21038;-41
2022/03/28 03:39:28;;;;;;;24.45;8.70;;;;;;;4.86;41.85;99789.00;1793098;80;20967;-41
2022/03/28 03:41:55;;;;;;;15.40;7.42;;;;;;;4.86;41.75;99786.39;1789008;80;20976;-40
2022/03/28 03:44:21;;;;;;;19.30;8.65;;;;;;;4.87;41.81;99792.45;1779702;80;21077;-41
2022/03/28 03:46:47;;;;;;;20.55;8.28;;;;;;;4.86;41.80;99792.91;1779446;80;20986;-41
2022/03/28 03:49:13;;;;;;;16.50;8.15;;;;;;;4.87;41.69;99797.20;1779351;80;21468;-40
2022/03/28 03:51:39;;;;;;;14.90;7.65;;;;;;;4.85;42.42;99790.33;1779392;80;21030;-41
2022/03/28 03:54:06;;;;;;;19.52;8.18;;;;;;;4.86;41.88;99796.81;1778956;80;21022;-39
2022/03/28 03:56:32;;;;;;;21.77;8.23;;;;;;;4.83;41.98;99796.88;1778914;80;21026;-41
2022/03/28 03:58:58;;;;;;;23.30;8.38;;;;;;;4.80;42.34;99795.64;1778917;80;20976;-39
2022/03/28 04:01:28;;;;;;;17.40;8.48;;;;;;;4.80;42.20;99795.64;1778887;80;21823;-40
2022/03/28 04:03:54;;;;;;;24.70;8.35;;;;;;;4.77;42.27;99785.31;1779017;80;21468;-41
2022/03/28 04:06:20;;;;;;;17.60;8.25;;;;;;;4.77;42.12;99791.83;1778890;80;20975;-41
2022/03/28 04:08:46;;;;;;;22.25;8.38;;;;;;;4.69;42.59;99784.62;1778883;81;21031;-40
2022/03/28 04:11:12;;;;;;;23.55;8.75;;;;;;;4.71;42.60;99786.73;1778733;80;21034;-39
2022/03/28 04:13:38;;;;;;;20.10;8.97;;;;;;;4.68;42.56;99779.86;1779025;81;21448;-40
2022/03/28 04:16:05;;;;;;;20.10;8.88;;;;;;;4.66;42.89;99771.66;1778822;81;20995;-41
2022/03/28 04:18:32;;;;;;;20.50;8.70;;;;;;;4.66;42.96;99776.86;1778916;80;21040;-40
2022/03/28 04:20:58;;;;;;;21.20;8.67;;;;;;;4.65;42.79;99770.80;1779051;81;21027;-40
2022/03/28 04:23:25;;;;;;;20.23;8.30;;;;;;;4.61;43.44;99766.11;1778806;80;21484;-41
2022/03/28 04:25:51;;;;;;;21.80;8.33;;;;;;;4.61;43.60;99764.81;1778901;80;21452;-40
2022/03/28 04:28:18;;;;;;;18.40;8.38;;;;;;;4.64;43.48;99766.93;1778790;81;20995;-39
2022/03/28 04:30:44;;;;;;;15.38;8.53;;;;;;;4.61;44.12;99762.20;1778874;80;20999;-39
2022/03/28 04:33:11;;;;;;;17.05;8.48;;;;;;;4.59;44.40;99757.48;1778918;80;21042;-39
2022/03/28 04:35:39;;;;;;;22.20;8.40;;;;;;;4.64;43.66;99755.20;1779131;81;20971;-40
2022/03/28 04:38:06;;;;;;;21.75;9.33;;;;;;;4.66;44.38;99756.91;1778837;80;21006;-40
2022/03/28 04:40:36;;;;;;;19.62;8.25;;;;;;;4.68;43.56;99748.59;1778983;80;21031;-39
2022/03/28 04:43:02;;;;;;;17.00;8.68;;;;;;;4.66;44.01;99749.52;1783882;80;21070;-40
2022/03/28 04:45:30;;;;;;;16.60;8.80;;;;;;;4.66;44.46;99750.39;1787053;80;21030;-41
2022/03/28 04:47:59;;;;;;;;;;;;;;;4.70;44.19;99745.51;1789783;80;21501;-41
2022/03/28 04:50:26;;;;;;;21.00;9.08;;;;;;;4.66;46.50;99745.18;1787102;80;20137;-41
2022/03/28 04:52:52;;;;;;;21.17;8.90;;;;;;;4.71;44.88;99738.11;1787247;80;20967;-40
2022/03/28 04:55:17;;;;;;;17.42;8.40;;;;;;;4.72;45.43;99745.48;1787153;80;21479;-40
2022/03/28 04:57:43;;;;;;;17.07;9.68;;;;;;;4.76;44.72;99736.69;1787108;80;21439;-40
2022/03/28 05:00:11;;;;;;;21.27;9.15;;;;;;;4.77;44.96;99742.31;1787058;80;21043;-41
2022/03/28 05:02:37;;;;;;;;;;;;;;;4.79;45.08;99734.86;1789634;80;21022;-42
2022/03/28 05:05:05;;;;;;;23.10;10.05;;;;;;;4.84;45.32;99736.06;1787034;80;20459;-41
2022/03/28 05:07:31;;;;;;;19.05;8.75;;;;;;;4.81;45.25;99727.02;1787091;80;20998;-40
2022/03/28 05:09:58;;;;;;;21.27;8.78;;;;;;;4.80;45.40;99725.28;1787036;80;20982;-41
2022/03/28 05:12:26;;;;;;;21.57;9.28;;;;;;;4.76;46.29;99729.72;1787139;80;21026;-40
2022/03/28 05:14:52;;;;;;;;;;;;;;;4.77;45.99;99724.08;1789702;80;21027;-41
2022/03/28 05:17:27;;;;;;;23.20;11.07;;;;;;;4.80;46.33;99723.56;1787286;80;20112;-41
2022/03/28 05:19:55;;;;;;;27.90;10.85;;;;;;;4.81;46.41;99713.52;1786969;80;20979;-40
2022/03/28 05:22:21;;;;;;;;;;;;;;;4.80;46.95;99714.86;1789684;80;20994;-42
2022/03/28 05:24:50;;;;;;;23.62;11.05;;;;;;;4.83;47.39;99721.31;1787094;80;20508;-41
2022/03/28 05:27:17;;;;;;;25.90;10.75;;;;;;;4.84;46.98;99720.43;1786738;80;20976;-41
2022/03/28 05:29:43;;;;;;;19.45;10.63;;;;;;;4.89;46.30;99726.36;1787027;80;21590;-40
2022/03/28 05:32:11;;;;;;;19.17;9.75;;;;;;;4.94;46.48;99724.95;1787310;80;20990;-41
2022/03/28 05:34:37;;;;;;;18.55;9.68;;;;;;;4.96;46.61;99720.09;1787103;80;21026;-41
2022/03/28 05:37:13;;;;;;;21.52;9.18;;;;;;;5.00;46.42;99716.54;1787011;80;21049;-41
2022/03/28 05:39:40;;;;;;;20.68;9.78;;;;;;;5.01;48.41;99710.87;1786999;80;21543;-41
2022/03/28 05:42:07;;;;;;;18.80;9.43;;;;;;;5.07;46.99;99709.85;1785964;80;20985;-40
2022/03/28 05:44:34;;;;;;;28.38;10.82;;;;;;;5.07;47.32;99702.03;1778897;81;21003;-41
2022/03/28 05:47:00;;;;;;;20.57;9.27;;;;;;;5.16;47.05;99704.39;1778937;81;20999;-40
2022/03/28 05:49:26;;;;;;;23.60;10.30;;;;;;;5.16;47.05;99704.39;1778819;80;21591;-41
2022/03/28 05:51:53;;;;;;;23.32;9.88;;;;;;;5.19;49.44;99707.78;1778720;81;21473;-41
2022/03/28 05:54:20;;;;;;;30.12;10.13;;;;;;;5.25;48.85;99709.36;1778889;80;20995;-41
2022/03/28 05:56:48;;;;;;;19.90;10.23;;;;;;;5.32;47.94;99704.84;1778948;81;21003;-41
2022/03/28 05:59:14;;;;;;;21.52;10.32;;;;;;;5.38;47.69;99702.94;1778746;80;20995;-41
2022/03/28 06:01:40;;;;;;;24.80;9.75;;;;;;;5.43;48.61;99693.66;1783400;79;20995;-42
2022/03/28 06:04:06;;;;;;;23.75;10.58;;;;;;;5.47;47.99;99697.05;1763131;79;20975;-42
2022/03/28 06:06:33;;;;;;;18.02;9.98;;;;;;;5.51;49.82;99697.36;1748055;82;20945;-41
2022/03/28 06:09:00;;;;;;;27.77;10.87;;;;;;;5.59;48.89;99692.79;1748394;81;20964;-41
2022/03/28 06:11:26;;;;;;;23.53;10.60;;;;;;;5.67;48.25;99686.05;1748274;81;20995;-41
2022/03/28 06:13:53;;;;;;;27.35;11.78;;;;;;;5.73;48.56;99690.64;1748143;82;21539;-41
2022/03/28 06:16:20;;;;;;;20.17;11.25;;;;;;;5.78;49.58;99686.58;1748105;82;20956;-41
2022/03/28 06:18:46;;;;;;;21.40;11.05;;;;;;;5.86;49.29;99689.83;1771904;80;20958;-40
2022/03/28 06:21:12;;;;;;;24.32;11.30;;;;;;;5.90;50.58;99687.98;1780593;79;21046;-41
2022/03/28 06:23:38;;;;;;;25.57;10.35;;;;;;;5.99;49.45;99686.89;1761678;79;21477;-41
2022/03/28 06:26:05;;;;;;;22.27;10.43;;;;;;;6.07;49.23;99683.13;1808254;79;21008;-41
2022/03/28 06:28:32;;;;;;;18.32;10.25;;;;;;;6.12;49.78;99692.98;1810556;79;20936;-40
2022/03/28 06:30:57;;;;;;;24.12;10.35;;;;;;;6.22;49.69;99683.56;1809675;79;21030;-41
2022/03/28 06:33:24;;;;;;;18.45;10.30;;;;;;;6.28;49.83;99686.84;1809047;79;21043;-42
2022/03/28 06:35:52;;;;;;;22.23;10.50;;;;;;;6.35;49.46;99677.06;1810797;79;20967;-41
2022/03/28 06:38:18;;;;;;;24.50;10.32;;;;;;;6.45;49.15;99671.93;1782848;79;20999;-42
2022/03/28 06:40:44;;;;;;;21.40;9.93;;;;;;;6.52;50.04;99669.52;1778275;81;21030;-41
2022/03/28 06:43:10;;;;;;;20.95;10.82;;;;;;;6.59;52.09;99666.73;1781882;80;21008;-41
2022/03/28 06:45:37;;;;;;;21.23;10.40;;;;;;;6.67;50.36;99663.39;1786668;80;21011;-41
2022/03/28 06:48:04;;;;;;;27.57;10.63;;;;;;;6.77;49.81;99654.34;1786916;80;20999;-41
2022/03/28 06:50:31;;;;;;;24.43;10.70;;;;;;;6.90;50.15;99655.63;1786857;80;20975;-42
2022/03/28 06:52:57;;;;;;;20.68;9.33;;;;;;;7.00;50.51;99659.23;1786874;80;20987;-42
2022/03/28 06:55:23;;;;;;;24.30;9.80;;;;;;;7.10;50.98;99646.24;1786615;80;20991;-42
2022/03/28 06:57:50;;;;;;;20.62;9.73;;;;;;;7.21;52.30;99655.02;1786461;80;20967;-42
2022/03/28 07:00:17;;;;;;;23.50;10.28;;;;;;;7.37;52.02;99650.06;1786675;80;20968;-43
2022/03/28 07:02:43;;;;;;;;;;;;;;;7.48;51.10;99646.62;1789221;80;21055;-41
2022/03/28 07:05:10;;;;;;;17.52;8.53;;;;;;;7.58;54.07;99645.35;1786637;80;20148;-41
2022/03/28 07:07:46;;;;;;;18.20;9.08;;;;;;;7.71;53.37;99639.20;1786918;80;20986;-43
2022/03/28 07:10:16;;;;;;;16.73;8.63;;;;;;;7.85;52.67;99633.45;1786614;80;20979;-42
2022/03/28 07:12:42;;;;;;;18.48;9.13;;;;;;;7.98;51.88;99624.19;1785749;80;20987;-42
2022/03/28 07:15:11;;;;;;;16.77;8.90;;;;;;;8.13;52.46;99625.80;1786521;80;20975;-42
2022/03/28 07:18:02;;;;;;;20.15;8.53;;;;;;;8.24;54.88;99615.31;1786661;80;20999;-42
2022/03/28 07:20:28;;;;;;;16.62;8.85;;;;;;;8.37;55.32;99626.14;1785953;80;21464;-42
2022/03/28 07:22:56;;;;;;;14.40;8.88;;;;;;;8.53;53.48;99609.80;1786417;80;20986;-43
2022/03/28 07:25:23;;;;;;;;;;;;;;;8.64;53.15;99612.81;1789252;80;21030;-42
2022/03/28 07:27:50;;;;;;;14.87;8.40;;;;;;;8.80;54.51;99610.41;1786808;80;20393;-42
2022/03/28 07:30:18;;;;;;;16.93;8.25;;;;;;;8.90;53.59;99612.19;1786742;80;21015;-43
2022/03/28 07:32:45;;;;;;;19.12;8.33;;;;;;;9.03;53.98;99615.97;1786755;80;20975;-41
2022/03/28 07:35:12;;;;;;;16.93;7.60;;;;;;;9.09;56.22;99603.89;1787107;80;21456;-42
2022/03/28 07:37:39;;;;;;;19.77;8.50;;;;;;;9.17;55.83;99589.14;1786783;80;20962;-42
2022/03/28 07:40:07;;;;;;;14.03;7.73;;;;;;;9.30;54.29;99595.53;1786937;80;21178;-43
2022/03/28 07:42:35;;;;;;;15.58;8.63;;;;;;;9.41;54.70;99594.58;1786113;80;21444;-42
2022/03/28 07:45:03;;;;;;;20.45;8.58;;;;;;;9.57;53.73;99599.98;1777955;81;21011;-44
2022/03/28 07:47:29;;;;;;;18.80;7.92;;;;;;;9.79;54.50;99599.83;1778658;81;20987;-43
2022/03/28 07:49:57;;;;;;;16.67;9.03;;;;;;;10.07;54.17;99591.09;1778457;81;20976;-43
2022/03/28 07:52:23;;;;;;;19.30;7.90;;;;;;;10.36;53.47;99585.28;1778684;81;20992;-43
2022/03/28 07:54:51;;;;;;;40.52;9.05;;;;;;;10.87;53.17;99591.92;1778507;80;21453;-43
2022/03/28 07:57:19;;;;;;;18.52;8.28;;;;;;;11.21;53.21;99589.32;1778595;80;20988;-43
2022/03/28 07:59:47;;;;;;;15.28;8.33;;;;;;;11.56;52.32;99583.45;1777292;81;20975;-43
2022/03/28 08:02:14;;;;;;;24.47;7.90;;;;;;;11.78;51.88;99574.37;1778548;80;20999;-43
2022/03/28 08:04:40;;;;;;;15.23;7.78;;;;;;;11.98;51.37;99589.09;1778627;81;21002;-43
2022/03/28 08:07:08;;;;;;;17.20;8.43;;;;;;;11.99;51.57;99567.94;1778552;80;21019;-43
2022/03/28 08:09:38;;;;;;;21.82;8.78;;;;;;;12.15;51.32;99563.09;1778452;80;21002;-44
2022/03/28 08:12:06;;;;;;;14.95;8.43;;;;;;;12.50;50.95;99557.09;1778368;81;20980;-43
2022/03/28 08:14:32;;;;;;;16.48;8.60;;;;;;;12.64;50.39;99557.58;1778447;81;20991;-44
2022/03/28 08:16:59;;;;;;;15.90;8.48;;;;;;;13.06;49.77;99560.75;1778383;81;21019;-43
2022/03/28 08:19:25;;;;;;;18.52;8.68;;;;;;;13.25;49.00;99557.81;1778571;80;21574;-44
2022/03/28 08:21:52;;;;;;;15.58;8.85;;;;;;;13.41;48.27;99549.81;1778693;80;21042;-44
2022/03/28 08:24:18;;;;;;;25.27;9.17;;;;;;;13.32;47.97;99563.60;1778737;80;21500;-45
2022/03/28 08:26:45;;;;;;;22.85;8.25;;;;;;;13.18;47.89;99560.94;1777986;81;20999;-44
2022/03/28 08:29:11;;;;;;;32.70;9.30;;;;;;;12.99;48.04;99560.75;1778059;80;20948;-44
2022/03/28 08:31:37;;;;;;;20.48;7.62;;;;;;;12.94;48.00;99552.73;1778393;81;21027;-46
2022/03/28 08:34:03;;;;;;;17.42;8.55;;;;;;;12.88;48.14;99551.32;1777915;80;21006;-44
2022/03/28 08:36:29;;;;;;;17.07;7.78;;;;;;;12.80;48.14;99541.69;1777687;81;21035;-43
2022/03/28 08:38:54;;;;;;;16.25;7.80;;;;;;;12.78;47.98;99535.66;1777567;81;21177;-45
2022/03/28 08:41:23;;;;;;;13.98;7.45;;;;;;;12.85;47.61;99534.34;1778168;80;20952;-44
2022/03/28 08:43:49;;;;;;;13.62;6.42;;;;;;;12.94;46.95;99535.09;1781793;80;21015;-44
2022/03/28 08:46:18;;;;;;;20.97;7.33;;;;;;;13.16;46.33;99537.73;1786311;80;21043;-46
2022/03/28 08:48:45;;;;;;;15.32;6.78;;;;;;;13.20;45.87;99520.75;1785842;80;20951;-45
2022/03/28 08:51:16;;;;;;;20.65;7.97;;;;;;;13.32;45.63;99521.34;1786100;80;21003;-44
2022/03/28 08:53:41;;;;;;;17.17;7.40;;;;;;;13.37;45.78;99511.34;1785940;80;21026;-43
2022/03/28 08:56:08;;;;;;;12.55;7.10;;;;;;;13.46;45.74;99514.33;1755239;80;22292;-47
2022/03/28 08:58:34;;;;;;;10.70;6.25;;;;;;;13.58;45.83;99499.02;1785831;80;21552;-46
2022/03/28 09:01:02;;;;;;;14.60;6.58;;;;;;;13.85;45.34;99496.86;1786382;80;20991;-46
2022/03/28 09:03:50;;;;;;;12.78;6.30;;;;;;;14.00;44.68;99494.03;1786507;80;21029;-48
2022/03/28 09:06:38;;;;;;;14.43;5.33;;;;;;;14.18;44.12;99499.05;1786660;80;21010;-44
2022/03/28 09:09:20;;;;;;;21.00;6.33;;;;;;;14.34;42.62;99498.87;1786728;80;21031;-45
2022/03/28 09:11:56;;;;;;;11.90;6.00;;;;;;;14.58;43.12;99491.93;1786819;80;20960;-44
2022/03/28 09:14:31;;;;;;;10.55;5.72;;;;;;;14.87;42.44;99483.77;1785710;80;20983;-43
2022/03/28 09:17:13;;;;;;;12.13;5.53;;;;;;;15.11;41.43;99477.70;1786633;80;20978;-44
2022/03/28 09:19:53;;;;;;;13.30;5.33;;;;;;;15.19;41.03;99482.45;1786812;80;20952;-42
2022/03/28 09:22:26;;;;;;;10.82;4.97;;;;;;;15.38;40.84;99478.85;1786847;80;21006;-44
2022/03/28 09:24:58;;;;;;;13.13;5.80;;;;;;;15.71;40.66;99471.55;1786347;80;20987;-44
2022/03/28 09:27:37;;;;;;;10.95;5.45;;;;;;;15.91;39.47;99476.73;1778200;80;21877;-43
2022/03/28 09:30:14;;;;;;;11.43;5.05;;;;;;;16.05;39.55;99475.72;1786603;80;21606;-45
2022/03/28 09:32:44;;;;;;;17.52;5.83;;;;;;;16.56;40.83;99480.32;1786863;80;20991;-45
2022/03/28 09:35:21;;;;;;;15.60;5.20;;;;;;;16.75;40.04;99468.61;1784885;80;21889;-43
2022/03/28 09:38:04;;;;;;;14.50;6.05;;;;;;;16.47;37.89;99458.81;1786549;80;21045;-44
2022/03/28 09:40:42;;;;;;;9.93;5.40;;;;;;;16.16;38.01;99457.66;1786644;80;21488;-43
2022/03/28 09:43:22;;;;;;;10.40;4.78;;;;;;;15.98;38.57;99445.80;1786361;80;21054;-43
2022/03/28 09:45:54;;;;;;;16.82;6.05;;;;;;;15.67;38.82;99450.70;1785647;80;21152;-43
2022/03/28 09:48:24;;;;;;;11.08;6.17;;;;;;;15.46;39.16;99439.86;1786793;80;20995;-44
2022/03/28 09:51:03;;;;;;;13.98;5.87;;;;;;;15.13;39.74;99438.70;1786520;80;20972;-43
2022/03/28 09:53:39;;;;;;;15.35;6.28;;;;;;;15.16;39.64;99431.38;1786651;80;21521;-44
2022/03/28 09:56:11;;;;;;;19.50;6.58;;;;;;;15.10;39.68;99442.92;1787086;80;20982;-43
2022/03/28 09:58:50;;;;;;;17.60;6.67;;;;;;;14.70;40.77;99449.22;1786779;80;20999;-44
2022/03/28 10:01:29;;;;;;;16.82;5.78;;;;;;;14.62;40.90;99409.69;1786506;80;21485;-43
2022/03/28 10:04:08;;;;;;;13.93;5.55;;;;;;;14.66;40.66;99419.09;1782008;80;21128;-44
2022/03/28 10:06:38;;;;;;;13.08;6.65;;;;;;;14.64;40.73;99413.06;1754597;82;21063;-43
2022/03/28 10:09:08;;;;;;;22.25;6.15;;;;;;;14.58;41.12;99409.89;1755491;80;21924;-43
2022/03/28 10:11:38;;;;;;;15.63;5.60;;;;;;;14.57;41.30;99402.92;1754715;82;21081;-45
2022/03/28 10:14:04;;;;;;;8.20;5.25;;;;;;;14.77;41.47;99392.25;1755098;82;21030;-44
2022/03/28 10:16:31;;;;;;;31.62;5.37;;;;;;;15.17;41.42;99393.81;1755183;82;21621;-44
2022/03/28 10:18:57;;;;;;;11.57;5.20;;;;;;;15.75;41.04;99391.34;1755158;81;21035;-44
2022/03/28 10:21:37;;;;;;;31.27;5.70;;;;;;;16.65;40.33;99402.61;1754330;81;21591;-45
2022/03/28 10:24:22;;;;;;;15.10;4.75;;;;;;;17.07;36.58;99376.27;1755102;82;21019;-47
2022/03/28 10:26:56;;;;;;;13.08;4.90;;;;;;;18.19;36.46;99374.95;1755764;82;21480;-45
2022/03/28 10:29:23;;;;;;;21.20;5.00;;;;;;;18.94;35.87;99386.72;1753819;82;21473;-46
2022/03/28 10:32:02;;;;;;;13.72;5.10;;;;;;;19.37;33.59;99390.38;1755828;81;21027;-44
2022/03/28 10:34:56;;;;;;;10.90;4.90;;;;;;;19.60;34.33;99371.93;1754752;82;21031;-45
2022/03/28 10:37:45;;;;;;;19.77;4.33;;;;;;;18.60;33.36;99371.00;1755703;82;20999;-44
2022/03/28 10:40:32;;;;;;;16.93;4.62;;;;;;;18.30;33.70;99368.70;1755500;82;21031;-43
2022/03/28 10:43:14;;;;;;;17.80;4.42;;;;;;;18.22;34.39;99373.34;1754910;82;21023;-46
2022/03/28 10:45:55;;;;;;;15.58;4.50;;;;;;;18.80;34.06;99337.28;1755633;82;21449;-46
2022/03/28 10:48:50;;;;;;;10.08;4.95;;;;;;;19.86;32.30;99347.70;1755115;82;21006;-46
2022/03/28 10:51:24;;;;;;;7.25;4.58;;;;;;;20.48;30.88;99354.78;1754098;82;21022;-46
2022/03/28 10:54:05;;;;;;;18.67;4.20;;;;;;;21.32;29.90;99334.20;1755564;82;20975;-46
2022/03/28 10:56:37;;;;;;;15.13;4.28;;;;;;;21.83;28.47;99331.31;1755718;82;21050;-44
2022/03/28 10:59:09;;;;;;;8.83;4.67;;;;;;;22.13;27.37;99338.52;1755512;82;21062;-46
2022/03/28 11:01:40;;;;;;;28.90;4.60;;;;;;;22.83;26.74;99316.59;1755113;82;21042;-45
2022/03/28 11:04:19;;;;;;;9.30;4.95;;;;;;;23.03;25.43;99330.08;1755338;82;21008;-50
2022/03/28 11:07:11;;;;;;;11.95;4.50;;;;;;;23.67;26.03;99308.02;1755488;82;20983;-44
2022/03/28 11:10:05;;;;;;;6.70;4.12;;;;;;;23.61;24.68;99295.25;1755461;82;20947;-45
2022/03/28 11:12:35;;;;;;;9.28;4.33;;;;;;;24.44;24.90;99316.94;1755812;82;20955;-45
2022/03/28 11:15:18;;;;;;;17.57;4.53;;;;;;;24.39;24.25;99295.95;1755910;81;20999;-44
2022/03/28 11:18:09;;;;;;;18.70;4.62;;;;;;;24.97;23.67;99303.77;1755854;82;20999;-47
2022/03/28 11:20:47;;;;;;;29.27;5.50;;;;;;;25.46;23.42;99295.38;1755045;82;20983;-45
2022/03/28 11:23:19;;;;;;;7.62;4.47;;;;;;;25.37;22.34;99279.80;1755700;82;21003;-47
2022/03/28 11:25:56;;;;;;;7.65;3.95;;;;;;;25.83;22.78;99282.42;1753983;82;21007;-44
2022/03/28 11:28:26;;;;;;;17.05;3.87;;;;;;;25.87;21.43;99286.94;1755693;81;21460;-44
2022/03/28 11:31:09;;;;;;;13.28;4.35;;;;;;;27.12;21.71;99264.50;1755297;82;21058;-45
2022/03/28 11:33:46;;;;;;;8.00;4.80;;;;;;;27.58;20.79;99255.98;1755167;82;21492;-44
2022/03/28 11:36:18;;;;;;;10.23;4.55;;;;;;;27.53;20.32;99253.56;1755403;82;20987;-45
2022/03/28 11:38:54;;;;;;;12.40;3.90;;;;;;;27.73;19.27;99251.83;1755654;82;21079;-46
2022/03/28 11:41:25;;;;;;;9.78;4.10;;;;;;;27.85;18.94;99238.63;1755276;82;21074;-46
2022/03/28 11:43:54;;;;;;;14.03;3.72;;;;;;;28.49;18.48;99255.61;1754673;81;21000;-45
2022/03/28 11:46:26;;;;;;;12.10;4.15;;;;;;;28.95;19.03;99244.64;1747324;82;21473;-44